createdAt,value
2022-10-29T00:00:53.817Z,16.70
2022-10-29T00:05:56.336Z,16.70
2022-10-29T00:11:09.811Z,16.50
2022-10-29T00:16:35.422Z,16.50
2022-10-29T00:21:38.093Z,16.40
2022-10-29T00:26:39.858Z,16.40
2022-10-29T00:31:41.628Z,16.40
2022-10-29T00:36:43.425Z,16.30
2022-10-29T00:41:45.189Z,16.30
2022-10-29T00:46:53.902Z,16.10
2022-10-29T00:51:57.216Z,16.20
2022-10-29T00:57:04.911Z,16.00
2022-10-29T01:02:07.014Z,16.10
2022-10-29T01:07:09.025Z,16.00
2022-10-29T01:12:48.284Z,16.10
2022-10-29T01:18:11.112Z,15.90
2022-10-29T01:23:21.714Z,15.90
2022-10-29T01:28:32.774Z,15.80
2022-10-29T01:33:40.409Z,15.80
2022-10-29T01:38:48.502Z,15.90
2022-10-29T01:43:59.015Z,15.80
2022-10-29T01:49:06.004Z,15.90
2022-10-29T01:54:11.266Z,15.90
2022-10-29T01:59:23.075Z,16.00
2022-10-29T02:04:48.753Z,16.00
2022-10-29T02:10:11.003Z,16.00
2022-10-29T02:15:17.841Z,16.00
2022-10-29T02:20:19.627Z,15.90
2022-10-29T02:25:21.466Z,15.80
2022-10-29T02:30:23.260Z,15.70
2022-10-29T02:35:25.098Z,15.60
2022-10-29T02:40:26.913Z,15.60
2022-10-29T02:45:28.673Z,15.60
2022-10-29T02:50:30.372Z,15.50
2022-10-29T02:55:32.186Z,15.50
2022-10-29T03:00:33.939Z,15.70
2022-10-29T03:05:37.760Z,15.70
2022-10-29T03:10:39.527Z,15.70
2022-10-29T03:15:44.968Z,15.70
2022-10-29T03:20:47.599Z,15.70
2022-10-29T03:25:56.894Z,15.80
2022-10-29T03:30:59.193Z,15.70
2022-10-29T03:36:06.248Z,15.70
2022-10-29T03:41:10.697Z,15.80
2022-10-29T03:46:12.707Z,15.80
2022-10-29T03:51:14.404Z,15.90
2022-10-29T03:56:16.379Z,15.90
2022-10-29T04:01:18.170Z,15.80
2022-10-29T04:06:20.032Z,16.00
2022-10-29T04:11:22.538Z,16.20
2022-10-29T04:16:24.473Z,16.20
2022-10-29T04:32:09.583Z,16.30
2022-10-29T04:37:11.299Z,16.30
2022-10-29T04:42:12.999Z,16.30
2022-10-29T04:47:14.775Z,16.30
2022-10-29T04:52:16.477Z,16.30
2022-10-29T04:57:18.565Z,16.30
2022-10-29T05:02:20.292Z,16.40
2022-10-29T05:07:22.055Z,16.40
2022-10-29T05:12:23.759Z,16.30
2022-10-29T05:17:25.557Z,16.30
2022-10-29T05:22:27.283Z,16.10
2022-10-29T05:27:29.099Z,16.20
2022-10-29T05:32:31.165Z,16.30
2022-10-29T05:37:32.872Z,16.20
2022-10-29T05:42:38.176Z,16.20
2022-10-29T05:47:39.918Z,16.10
2022-10-29T05:52:41.747Z,16.00
2022-10-29T05:57:43.468Z,16.10
2022-10-29T06:02:45.460Z,15.90
2022-10-29T06:07:52.833Z,16.00
2022-10-29T06:12:54.720Z,15.80
2022-10-29T06:17:56.837Z,15.60
2022-10-29T06:22:59.552Z,15.70
2022-10-29T06:28:09.968Z,15.60
2022-10-29T06:33:11.669Z,15.50
2022-10-29T06:38:13.947Z,15.50
2022-10-29T06:43:15.676Z,15.50
2022-10-29T06:48:21.698Z,15.40
2022-10-29T06:53:24.528Z,15.50
2022-10-29T06:58:26.485Z,15.60
2022-10-29T07:03:28.202Z,15.50
2022-10-29T07:08:30.658Z,15.60
2022-10-29T07:13:32.424Z,15.70
2022-10-29T07:18:34.480Z,15.80
2022-10-29T07:23:36.259Z,15.90
2022-10-29T07:28:37.991Z,16.00
2022-10-29T07:33:39.707Z,16.00
2022-10-29T07:38:41.636Z,16.20
2022-10-29T07:43:43.357Z,16.20
2022-10-29T07:48:45.087Z,16.30
2022-10-29T07:53:46.813Z,16.50
2022-10-29T07:58:48.563Z,16.50
2022-10-29T08:03:51.272Z,16.70
2022-10-29T08:08:52.973Z,16.80
2022-10-29T08:13:54.705Z,17.00
2022-10-29T08:18:56.824Z,17.00
2022-10-29T08:23:58.554Z,17.10
2022-10-29T08:29:00.255Z,17.20
2022-10-29T08:34:04.924Z,17.20
2022-10-29T08:39:08.914Z,17.30
2022-10-29T08:44:10.695Z,17.30
2022-10-29T08:49:33.072Z,17.40
2022-10-29T08:54:39.923Z,17.60
2022-10-29T09:05:19.006Z,18.10
2022-10-29T09:10:33.009Z,18.30
2022-10-29T09:15:59.175Z,18.30
2022-10-29T09:21:25.942Z,18.30
2022-10-29T09:26:48.972Z,18.20
2022-10-29T09:32:11.567Z,18.20
2022-10-29T09:37:34.069Z,18.30
2022-10-29T09:42:41.701Z,18.40
2022-10-29T09:47:53.018Z,18.60
2022-10-29T09:52:55.234Z,18.70
2022-10-29T09:57:58.183Z,18.80
2022-10-29T10:03:29.031Z,18.90
2022-10-29T10:08:32.376Z,19.00
2022-10-29T10:13:50.254Z,19.40
2022-10-29T10:18:52.015Z,19.50
2022-10-29T10:23:55.430Z,19.60
2022-10-29T10:29:12.375Z,19.80
2022-10-29T10:34:18.689Z,20.30
2022-10-29T10:39:32.188Z,20.60
2022-10-29T10:44:34.923Z,20.70
2022-10-29T10:49:38.834Z,20.80
2022-10-29T10:54:45.699Z,20.90
2022-10-29T11:00:07.104Z,21.10
2022-10-29T11:05:22.798Z,21.40
2022-10-29T11:10:40.835Z,21.70
2022-10-29T11:15:58.735Z,22.00
2022-10-29T11:21:14.290Z,22.20
2022-10-29T11:26:44.011Z,22.50
2022-10-29T11:32:06.944Z,22.70
2022-10-29T11:37:21.703Z,22.80
2022-10-29T11:42:23.510Z,22.70
2022-10-29T11:47:42.855Z,22.60
2022-10-29T11:53:18.735Z,22.90
2022-10-29T11:58:57.658Z,23.20
2022-10-29T12:04:22.990Z,23.40
2022-10-29T12:09:47.914Z,23.50
2022-10-29T12:14:53.629Z,23.70
2022-10-29T12:20:25.075Z,23.80
2022-10-29T12:25:43.497Z,23.30
2022-10-29T12:31:24.369Z,23.10
2022-10-29T12:36:52.062Z,23.00
2022-10-29T12:42:14.536Z,22.80
2022-10-29T12:47:46.822Z,22.80
2022-10-29T12:52:48.498Z,22.80
2022-10-29T12:57:50.227Z,22.90
2022-10-29T13:02:53.114Z,23.00
2022-10-29T13:08:03.448Z,23.00
2022-10-29T13:13:19.527Z,23.30
2022-10-29T13:18:30.918Z,23.60
2022-10-29T13:23:37.910Z,23.70
2022-10-29T13:28:39.998Z,24.20
2022-10-29T13:33:41.659Z,24.30
2022-10-29T13:39:07.360Z,24.10
2022-10-29T13:44:26.956Z,24.00
2022-10-29T13:49:33.547Z,23.90
2022-10-29T13:54:38.439Z,23.90
2022-10-29T13:59:52.758Z,23.70
2022-10-29T14:05:11.100Z,23.40
2022-10-29T14:10:20.449Z,23.40
2022-10-29T14:15:22.763Z,23.40
2022-10-29T14:20:28.318Z,23.40
2022-10-29T14:25:38.433Z,23.40
2022-10-29T14:30:40.159Z,23.30
2022-10-29T14:35:42.137Z,23.00
2022-10-29T14:40:45.605Z,22.70
2022-10-29T14:45:47.382Z,22.60
2022-10-29T14:50:56.466Z,22.40
2022-10-29T14:55:59.936Z,22.30
2022-10-29T15:01:05.980Z,22.10
2022-10-29T15:06:17.433Z,21.90
2022-10-29T15:11:33.795Z,21.80
2022-10-29T15:16:38.354Z,21.80
2022-10-29T15:21:43.895Z,21.60
2022-10-29T15:26:49.622Z,21.50
2022-10-29T15:31:55.808Z,21.30
2022-10-29T15:36:58.561Z,21.20
2022-10-29T15:42:01.200Z,21.20
2022-10-29T15:47:21.143Z,21.10
2022-10-29T15:52:28.155Z,21.00
2022-10-29T15:57:31.493Z,20.90
2022-10-29T16:02:33.445Z,20.70
2022-10-29T16:07:35.308Z,20.70
2022-10-29T16:12:37.160Z,20.60
2022-10-29T16:17:38.978Z,20.60
2022-10-29T16:22:40.962Z,20.50
2022-10-29T16:27:43.903Z,20.50
2022-10-29T16:32:46.305Z,20.40
2022-10-29T16:37:48.923Z,20.40
2022-10-29T16:42:51.078Z,20.30
2022-10-29T16:47:53.225Z,20.20
2022-10-29T16:53:12.167Z,20.10
2022-10-29T16:58:15.832Z,20.00
2022-10-29T17:03:18.076Z,19.90
2022-10-29T17:08:20.291Z,19.90
2022-10-29T17:13:22.003Z,19.90
2022-10-29T17:18:24.726Z,19.80
2022-10-29T17:23:27.018Z,19.80
2022-10-29T17:28:28.907Z,19.60
2022-10-29T17:33:30.714Z,19.50
2022-10-29T17:38:32.615Z,19.20
2022-10-29T17:43:34.418Z,19.20
2022-10-29T17:48:36.943Z,19.20
2022-10-29T17:53:39.279Z,19.00
2022-10-29T17:58:41.050Z,19.00
2022-10-29T18:03:42.987Z,18.90
2022-10-29T18:08:45.255Z,18.90
2022-10-29T18:13:48.826Z,18.90
2022-10-29T18:19:01.966Z,18.90
2022-10-29T18:24:04.575Z,18.90
2022-10-29T18:29:09.514Z,18.90
2022-10-29T18:34:12.317Z,18.90
2022-10-29T18:39:14.065Z,18.90
2022-10-29T18:44:15.783Z,18.90
2022-10-29T18:49:17.872Z,18.80
2022-10-29T18:54:20.453Z,18.70
2022-10-29T18:59:22.424Z,18.80
2022-10-29T19:04:24.181Z,18.70
2022-10-29T19:09:26.019Z,18.70
2022-10-29T19:14:28.245Z,18.50
2022-10-29T19:19:30.077Z,18.50
2022-10-29T19:24:31.788Z,18.50
2022-10-29T19:29:33.819Z,18.40
2022-10-29T19:34:35.597Z,18.30
2022-10-29T19:39:37.554Z,18.30
2022-10-29T19:44:39.251Z,18.20
2022-10-29T19:49:41.026Z,18.40
2022-10-29T19:54:42.952Z,18.30
2022-10-29T19:59:44.686Z,18.30
2022-10-29T20:04:46.530Z,18.40
2022-10-29T20:09:48.283Z,18.30
2022-10-29T20:14:50.241Z,18.30
2022-10-29T20:19:51.994Z,18.10
2022-10-29T20:24:53.728Z,18.10
2022-10-29T20:29:55.653Z,18.20
2022-10-29T20:34:57.875Z,18.20
2022-10-29T20:39:59.882Z,18.20
2022-10-29T20:45:01.977Z,18.10
2022-10-29T20:50:04.130Z,17.80
2022-10-29T20:55:06.667Z,17.50
2022-10-29T21:00:09.835Z,17.30
2022-10-29T21:05:11.692Z,17.60
2022-10-29T21:10:13.687Z,17.40
2022-10-29T21:15:15.543Z,17.00
2022-10-29T21:20:17.273Z,16.90
2022-10-29T21:25:19.094Z,16.70
2022-10-29T21:30:24.514Z,16.40
2022-10-29T21:35:26.383Z,16.60
2022-10-29T21:40:28.246Z,16.40
2022-10-29T21:45:30.344Z,16.40
2022-10-29T21:50:32.067Z,16.30
2022-10-29T21:55:36.455Z,16.20
2022-10-29T22:00:38.412Z,16.20
2022-10-29T22:05:40.184Z,16.10
2022-10-29T22:10:42.082Z,16.10
2022-10-29T22:15:45.090Z,16.10
2022-10-29T22:20:46.947Z,16.20
2022-10-29T22:25:51.659Z,15.90
2022-10-29T22:31:00.718Z,16.00
2022-10-29T22:36:11.169Z,16.00
2022-10-29T22:41:15.579Z,16.00
2022-10-29T22:46:19.273Z,16.00
2022-10-29T22:51:26.446Z,15.90
2022-10-29T22:56:38.744Z,15.90
2022-10-29T23:01:44.295Z,15.90
2022-10-29T23:06:47.840Z,16.00
2022-10-29T23:11:51.631Z,16.00
2022-10-29T23:16:53.366Z,15.90
2022-10-29T23:21:55.408Z,16.10
2022-10-29T23:26:57.282Z,15.90
2022-10-29T23:32:04.344Z,15.90
2022-10-29T23:37:43.908Z,15.80
2022-10-29T23:42:45.705Z,15.70
2022-10-29T23:47:47.430Z,15.70
2022-10-29T23:52:49.156Z,15.60
2022-10-29T23:57:50.992Z,15.90
